• Join FlightAware (Why Join?)
  • Login
  • US Flag 
01:30AM EDT


 

Airport Tracker/Info


-or-


 

Live Flight TrackerFlight Track Log ✈ GJS6206 ✈ 08-Apr-2013 ✈ KDTW - KSTL

Flight Track Log - Related Links

Times and Time Zones

All times are in EDT time to prevent confusion due to time zone crossing. See the GJS6206 flight status page for this flight to view local times or setup timezone preferences in your user account.

Time Position Orientation Groundspeed Altitude Reporting Facility
EDT Latitude Longitude Course Direction KTS MPH feet Rate Location/Type
08:15PM 42.2081 -83.3528 202° Southwest 155 178 1,400  Level Cleveland Center
08:16PM 42.1467 -83.3867 202° Southwest 203 234 5,300 2,820 Climbing Cleveland Center
08:17PM 42.0878 -83.4092 196° South 236 272 8,000 2,520 Climbing Cleveland Center
08:18PM 42.0350 -83.4375 202° Southwest 243 280 10,000 960 Climbing Cleveland Center
08:19PM 41.9708 -83.4961 214° Southwest 248 285 10,000 540 Level Cleveland Center
08:20PM 41.9175 -83.5494 217° Southwest 280 322 11,200 1,800 Climbing Cleveland Center
08:21PM 41.8594 -83.6111 218° Southwest 275 316 13,600 2,640 Climbing Cleveland Center
08:22PM 41.7994 -83.6722 217° Southwest 281 323 16,500 2,580 Climbing Cleveland Center
08:23PM 41.7372 -83.7361 217° Southwest 281 323 18,800 2,220 Climbing Cleveland Center
08:24PM 41.6708 -83.7994 215° Southwest 281 323 21,000 2,280 Climbing Cleveland Center
08:25PM 41.5961 -83.8597 211° Southwest 301 346 23,400 2,100 Climbing Cleveland Center
08:26PM 41.5217 -83.9169 210° Southwest 313 360 25,300 1,260 Climbing Cleveland Center
08:27PM 41.4914 -84.0208 249° West 294 338 26,000 720 Climbing Cleveland Center
08:28PM 41.4669 -84.1414 255° West 307 353 26,800 900 Climbing Cleveland Center
08:29PM 41.4481 -84.2733 259° West 330 380 27,900 960 Climbing Cleveland Center
08:31PM 41.3867 -84.5603 254° West 366 421 30,100 960 Climbing Chicago Center
08:32PM 41.3603 -84.6897 255° West 364 419 31,300 1,200 Climbing Chicago Center
08:33PM 41.3275 -84.8433 254° West 361 415 32,600 1,200 Climbing Chicago Center
08:34PM 41.3019 -84.9711 255° West 357 411 33,800 1,020 Climbing Chicago Center
08:36PM 41.2742 -85.0981 254° West 357 411 34,800 960 Climbing Chicago Center
08:37PM 41.2475 -85.2236 254° West 353 406 35,800 540 Climbing Chicago Center
08:38PM 41.2206 -85.3486 254° West 351 404 36,000 60 Climbing Chicago Center
08:39PM 41.1942 -85.4758 255° West 355 409 36,000  Level Chicago Center
08:40PM 41.1664 -85.6006 254° West 352 405 36,000  Level Chicago Center
08:41PM 41.1342 -85.7522 254° West 354 407 36,000  Level Chicago Center
08:42PM 41.1061 -85.8811 254° West 362 417 36,000  Level Chicago Center
08:43PM 41.0783 -86.0097 254° West 364 419 36,000  Level Chicago Center
08:44PM 41.0508 -86.1369 254° West 362 417 36,000  Level Chicago Center
08:45PM 41.0228 -86.2619 253° West 355 409 36,000  Level Chicago Center
08:46PM 40.9947 -86.3844 253° West 351 404 36,000  Level Chicago Center
08:47PM 40.9622 -86.5336 254° West 353 406 36,000  Level Chicago Center
08:48PM 40.9339 -86.6575 253° West 352 405 36,000  Level Chicago Center
08:49PM 40.9047 -86.7894 254° West 349 402 36,000  Level Chicago Center
08:50PM 40.8739 -86.9094 251° West 348 400 36,000  Level Chicago Center
08:51PM 40.8219 -87.0206 238° Southwest 357 411 36,000  Level Chicago Center
08:52PM 40.7661 -87.1267 235° Southwest 355 409 36,000 -480 Level Chicago Center
08:53PM 40.6981 -87.2278 228° Southwest 371 427 35,100 -540 Descending Chicago Center
08:54PM 40.6108 -87.3117 216° Southwest 387 445 35,000 -60 Descending Chicago Center
08:55PM 40.5106 -87.4128 217° Southwest 380 437 35,000  Level Chicago Center
08:56PM 40.4336 -87.4936 219° Southwest 361 415 35,000  Level Chicago Center
08:57PM 40.3842 -87.6050 240° Southwest 357 411 35,000  Level Chicago Center
08:58PM 40.3422 -87.7214 245° Southwest 354 407 35,000 -240 Level Chicago Center
08:59PM 40.2978 -87.8367 243° Southwest 355 409 34,600 -900 Descending Chicago Center
09:00PM 40.2542 -87.9556 244° Southwest 362 417 33,200 -1,560 Descending Chicago Center
09:01PM 40.1975 -88.1008 243° Southwest 373 429 31,400 -1,560 Descending Chicago Center
09:02PM 40.1533 -88.2167 244° Southwest 388 447 30,000 -1,440 Descending Chicago Center
09:03PM 40.1039 -88.3450 243° Southwest 394 453 28,500 -1,440 Descending Chicago Center
09:04PM 40.0778 -88.3889 232° Southwest 395 455 28,000 -420 Descending Kansas City Center
09:05PM 39.9750 -88.4486 204° Southwest 409 471 28,000  Level Kansas City Center
09:06PM 39.8681 -88.4989 200° South 407 468 28,000  Level Kansas City Center
09:07PM 39.7608 -88.5486 200° South 408 470 28,000  Level Kansas City Center
09:08PM 39.6528 -88.5997 200° South 410 472 28,000  Level Kansas City Center
09:09PM 39.5419 -88.6822 210° Southwest 386 444 28,000 -360 Level Kansas City Center
09:10PM 39.4722 -88.7825 228° Southwest 374 430 27,300 -840 Descending Kansas City Center
09:11PM 39.4072 -88.8947 233° Southwest 374 430 26,400 -1,260 Descending Kansas City Center
09:12PM 39.3486 -88.9933 232° Southwest 393 452 24,700 -1,680 Descending Kansas City Center
09:13PM 39.2725 -89.1272 234° Southwest 390 449 22,900 -1,680 Descending Kansas City Center
09:14PM 39.2092 -89.2339 233° Southwest 379 436 21,400 -1,560 Descending Kansas City Center
09:15PM 39.1419 -89.3489 233° Southwest 371 427 19,700 -1,560 Descending Kansas City Center
09:15PM 39.1208 -89.3275 142° Southeast 364 419 19,200 -1,620 Descending FAA TRACON SMA TRACON (SMA)
09:16PM 39.0975 -89.3667 232° Southwest 358 412 18,600 -1,500 Descending FAA TRACON SMA TRACON (SMA)
09:16PM 39.0783 -89.3969 231° Southwest 356 410 18,200 -1,560 Descending FAA TRACON SMA TRACON (SMA)
09:16PM 39.0597 -89.4275 232° Southwest 353 406 17,600 -1,800 Descending FAA TRACON SMA TRACON (SMA)
09:17PM 39.0378 -89.4658 234° Southwest 348 400 17,000 -1,500 Descending FAA TRACON SMA TRACON (SMA)
09:17PM 39.0186 -89.4950 230° Southwest 347 399 16,600 -1,440 Descending FAA TRACON SMA TRACON (SMA)
09:17PM 39.0017 -89.5256 234° Southwest 343 395 16,100 -1,620 Descending FAA TRACON SMA TRACON (SMA)
09:18PM 38.9844 -89.5667 242° Southwest 341 392 15,500 -1,500 Descending FAA TRACON SMA TRACON (SMA)
09:18PM 38.9744 -89.6017 250° West 339 390 15,100 -1,440 Descending FAA TRACON SMA TRACON (SMA)
09:18PM 38.9631 -89.6350 246° West 334 384 14,600 -1,620 Descending FAA TRACON SMA TRACON (SMA)
09:19PM 38.9494 -89.6761 247° West 327 376 14,000 -1,500 Descending FAA TRACON SMA TRACON (SMA)
09:19PM 38.9392 -89.7094 248° West 325 374 13,600 -1,440 Descending FAA TRACON SMA TRACON (SMA)
09:19PM 38.9289 -89.7431 249° West 328 377 13,100 -1,620 Descending FAA TRACON SMA TRACON (SMA)
09:20PM 38.9164 -89.7856 249° West 330 380 12,500 -1,680 Descending FAA TRACON SMA TRACON (SMA)
09:20PM 38.9069 -89.8192 250° West 329 379 12,000 -1,560 Descending FAA TRACON SMA TRACON (SMA)
09:20PM 38.8956 -89.8619 251° West 328 377 11,500 -1,500 Descending FAA TRACON SMA TRACON (SMA)
09:21PM 38.8858 -89.8942 249° West 321 369 11,000 -1,500 Descending FAA TRACON SMA TRACON (SMA)
09:21PM 38.8739 -89.9250 244° Southwest 315 362 10,500 -1,440 Descending FAA TRACON SMA TRACON (SMA)
09:21PM 38.8622 -89.9550 243° Southwest 308 354 10,100 -780 Descending FAA TRACON SMA TRACON (SMA)
09:22PM 38.8500 -89.9900 246° West 284 327 10,000 -480 Descending FAA TRACON SMA TRACON (SMA)
09:22PM 38.8411 -90.0164 247° West 266 306 9,800 -960 Descending FAA TRACON SMA TRACON (SMA)
09:22PM 38.8300 -90.0492 246° West 261 300 9,400 -900 Descending FAA TRACON SMA TRACON (SMA)
09:23PM 38.8211 -90.0753 246° West 261 300 9,200 -780 Descending FAA TRACON SMA TRACON (SMA)
09:23PM 38.8128 -90.1019 248° West 261 300 8,900 -780 Descending FAA TRACON SMA TRACON (SMA)
09:23PM 38.8019 -90.1356 248° West 265 305 8,700 -780 Descending FAA TRACON SMA TRACON (SMA)
09:24PM 38.7992 -90.1650 263° West 273 314 8,400 -780 Descending FAA TRACON SMA TRACON (SMA)
09:24PM 38.8075 -90.1936 291° West 281 323 8,200 -780 Descending FAA TRACON SMA TRACON (SMA)
09:24PM 38.8225 -90.2264 300° West 280 322 7,900 -1,080 Descending FAA TRACON SMA TRACON (SMA)
09:25PM 38.8347 -90.2528 301° West 279 321 7,500 -1,500 Descending FAA TRACON SMA TRACON (SMA)
09:25PM 38.8450 -90.2800 296° West 276 318 6,900 -1,860 Descending FAA TRACON SMA TRACON (SMA)
09:25PM 38.8561 -90.3139 293° West 269 310 6,300 -1,320 Descending FAA TRACON SMA TRACON (SMA)
09:26PM 38.8647 -90.3394 293° West 259 298 6,000 -900 Descending FAA TRACON SMA TRACON (SMA)
09:26PM 38.8717 -90.3633 290° West 240 276 5,700 -1,440 Descending FAA TRACON SMA TRACON (SMA)
09:26PM 38.8778 -90.3931 285° West 224 258 5,100 -1,680 Descending FAA TRACON SMA TRACON (SMA)
09:27PM 38.8831 -90.4161 286° West 218 251 4,600 -1,620 Descending FAA TRACON SMA TRACON (SMA)
09:27PM 38.8800 -90.4414 261° West 210 242 4,000 -1,740 Descending FAA TRACON SMA TRACON (SMA)
09:27PM 38.8683 -90.4542 220° Southwest 190 219 3,500 -1,380 Descending FAA TRACON SMA TRACON (SMA)
09:28PM 38.8567 -90.4664 219° Southwest 176 203 3,100 -1,380 Descending FAA TRACON SMA TRACON (SMA)
09:28PM 38.8414 -90.4756 205° Southwest 171 197 2,600 -960 Descending FAA TRACON SMA TRACON (SMA)
09:28PM 38.8283 -90.4703 163° South 164 189 2,500 -300 Descending FAA TRACON SMA TRACON (SMA)
09:29PM 38.8172 -90.4622 151° Southeast 154 177 2,400 -300 Descending FAA TRACON SMA TRACON (SMA)
09:29PM 38.8044 -90.4497 143° Southeast 152 175 2,300 -360 Descending FAA TRACON SMA TRACON (SMA)
09:29PM 38.7972 -90.4378 128° Southeast 143 165 2,200 -600 Descending FAA TRACON SMA TRACON (SMA)
09:30PM 38.7908 -90.4258 124° Southeast 133 153 1,900 -780 Descending FAA TRACON SMA TRACON (SMA)
09:30PM 38.7833 -90.4111 123° Southeast 128 147 1,700 -660 Descending FAA TRACON SMA TRACON (SMA)
09:30PM 38.7775 -90.3992 122° Southeast 128 147 1,500 -600 Descending FAA TRACON SMA TRACON (SMA)
09:31PM 38.7717 -90.3875 123° Southeast 128 147 1,300 -780 Descending FAA TRACON SMA TRACON (SMA)
09:31PM 38.7642 -90.3728 123° Southeast 127 146 1,000 -780 Descending FAA TRACON SMA TRACON (SMA)
09:31PM 38.7586 -90.3614 122° Southeast 125 144 800 -480 Descending FAA TRACON SMA TRACON (SMA)
09:32PM 38.7550 -90.3578 142° Southeast 111 128 700 -180 Descending FAA TRACON SMA TRACON (SMA)
09:32PM 38.7550 -90.3578 90° East 111 128 700  Level FAA TRACON SMA TRACON (SMA)